Farlington, Kansas
Current Conditions -  °F | °C
As of 2:15 AM on Thursday 27 Nov 2014 (Local Time) from KPTS Reporting Station
Scattered Clouds Scattered Clouds  
Wind Chill: 22°   Ceiling: Unl
Heat Index: 31°   Visibility: 10mi
Dew Point: 24°   Wind: 10mph
Humidity: 76%   Direction: 360°N
Pressure: 30.44"   Gusts: 16mph
Location:  37.62°N, 94.83°W
Report Text: KPTS 270815Z AUTO 36009G14KT 10SM SCT018 M01/M04 A3044 RMK AO2 T10061044
Loading
Personal Weather Stations






























Interactive Weather Map New forecast layout! Learn more

10-Day Weather Forecast

Advertisements
Track Severe Weather on mobile